Aérodrome :
LOGIN :

S'inscrire | Disclaimer

   EN    FR    IT 

 










Légende :    VFR   VFR Marginal   IFR   IFR Intensif   IFR Très Intensif
Visi : 
Plafond : 
>= 8 km
>= 3000ft
5 à 8 km
1000 à 3000 ft
1500m à 5 km
500 à 1000 ft
800 à 1500m
200 à 500 ft
< 800m
< 200 ft
Symboles :   Orages  Brouillard  Fortes neiges  Fortes précipitations  Vent > 20 kt
SIGMETs :   Divers  Orages  Givrage  Turbulence  Onde Orograph.  Cendres Volcan.






- Altitude de l'aérodrome : 203 ft
- Code IATA : ELU


DAUO - Guemar - El Oued

DERNIER METAR :
  • 042100Z 33008KT CAVOK 33/10 Q1002

METARs EXPIRÉS :
  • 042000Z 33011KT CAVOK 35/09 Q1002
  • 041900Z 33007KT CAVOK 37/11 Q1001

TAF TAF DAUO
Valide du 04 à 21h jusqu'au 05 à 06h UTC


042000Z 0421/0506 08012KT CAVOK
BECMG 0500/0503 35020KT 5000 DRSA
PROB40
TEMPO 0501/0506 34020G35KT 2000 BLSA



MET'MAP, la Météo Aéronautique d'un coup d'oeil ! - Copyright ORBIFLY Décembre 2007 - Disclaimer

ORBIFLY MET'MAP TEAM :

Programmation & Développement : Alexandra Zaïnal
Sur une idée originale de : Baudouin d'Aumeries
Assistance à la programmation : Marc-Olivier Méhu
Soutien technique & logistique : Manuel Goepfert

Contact : metmap@orbifly.com




SOURCES & CREDITS :

   NOAA